createdAt,value
2023-02-18T00:01:42.678Z,54.91
2023-02-18T00:04:10.817Z,55.03
2023-02-18T00:06:39.585Z,54.89
2023-02-18T00:09:09.163Z,54.98
2023-02-18T00:11:39.530Z,54.96
2023-02-18T00:14:16.923Z,54.92
2023-02-18T00:16:46.422Z,55.08
2023-02-18T00:19:18.055Z,54.78
2023-02-18T00:21:47.470Z,54.48
2023-02-18T00:24:17.041Z,54.31
2023-02-18T00:26:46.092Z,54.43
2023-02-18T00:29:15.687Z,54.61
2023-02-18T00:31:43.903Z,54.42
2023-02-18T00:34:13.093Z,54.88
2023-02-18T00:36:41.311Z,54.47
2023-02-18T00:39:11.168Z,54.60
2023-02-18T00:41:39.830Z,54.46
2023-02-18T00:44:08.263Z,54.45
2023-02-18T00:46:38.046Z,54.15
2023-02-18T00:49:07.325Z,54.04
2023-02-18T00:51:35.982Z,54.25
2023-02-18T00:54:04.152Z,54.14
2023-02-18T00:56:32.440Z,54.13
2023-02-18T00:59:00.713Z,54.29
2023-02-18T01:01:29.158Z,54.46
2023-02-18T01:03:58.803Z,54.68
2023-02-18T01:06:26.884Z,54.59
2023-02-18T01:08:55.113Z,54.44
2023-02-18T01:11:23.437Z,54.47
2023-02-18T01:13:51.990Z,54.51
2023-02-18T01:16:20.730Z,54.32
2023-02-18T01:18:49.031Z,54.29
2023-02-18T01:21:18.612Z,54.43
2023-02-18T01:23:47.102Z,54.59
2023-02-18T01:26:15.209Z,54.33
2023-02-18T01:28:43.314Z,54.39
2023-02-18T01:31:14.246Z,54.18
2023-02-18T01:33:42.844Z,53.96
2023-02-18T01:36:12.021Z,52.88
2023-02-18T01:38:42.930Z,52.97
2023-02-18T01:41:11.654Z,53.23
2023-02-18T01:43:39.899Z,52.98
2023-02-18T01:46:19.638Z,52.99
2023-02-18T01:48:53.114Z,52.99
2023-02-18T01:51:25.011Z,52.76
2023-02-18T01:53:59.129Z,52.45
2023-02-18T01:56:30.622Z,52.38
2023-02-18T01:59:02.492Z,52.62
2023-02-18T02:01:32.146Z,52.58
2023-02-18T02:04:00.648Z,52.74
2023-02-18T02:06:29.256Z,52.88
2023-02-18T02:09:03.245Z,53.10
2023-02-18T02:11:56.644Z,52.83
2023-02-18T02:14:37.242Z,52.94
2023-02-18T02:17:11.310Z,53.59
2023-02-18T02:20:20.353Z,53.26
2023-02-18T02:23:19.693Z,53.35
2023-02-18T02:26:20.747Z,53.35
2023-02-18T02:29:17.663Z,52.87
2023-02-18T02:32:07.184Z,52.67
2023-02-18T02:34:56.551Z,52.29
2023-02-18T02:37:31.542Z,52.21
2023-02-18T02:40:12.442Z,51.86
2023-02-18T02:42:49.644Z,51.71
2023-02-18T02:45:25.271Z,51.28
2023-02-18T02:48:02.023Z,51.30
2023-02-18T02:50:38.375Z,51.13
2023-02-18T02:53:20.374Z,51.29
2023-02-18T02:55:48.498Z,51.16
2023-02-18T02:58:18.809Z,51.16
2023-02-18T03:00:58.557Z,51.17
2023-02-18T03:03:40.733Z,51.04
2023-02-18T03:06:29.000Z,51.14
2023-02-18T03:09:05.179Z,50.87
2023-02-18T03:11:43.854Z,50.70
2023-02-18T03:14:17.235Z,50.84
2023-02-18T03:16:50.493Z,50.78
2023-02-18T03:19:24.121Z,50.73
2023-02-18T03:21:58.443Z,50.98
2023-02-18T03:24:31.853Z,51.07
2023-02-18T03:27:05.630Z,50.73
2023-02-18T03:29:35.020Z,50.78
2023-02-18T03:32:08.022Z,51.04
2023-02-18T03:34:41.993Z,51.29
2023-02-18T03:37:14.102Z,51.05
2023-02-18T03:39:47.237Z,51.44
2023-02-18T03:42:16.911Z,51.36
2023-02-18T03:44:44.983Z,51.22
2023-02-18T03:47:13.461Z,51.36
2023-02-18T03:49:41.636Z,51.36
2023-02-18T03:52:11.514Z,51.17
2023-02-18T03:54:39.885Z,51.15
2023-02-18T03:57:08.601Z,51.06
2023-02-18T03:59:37.279Z,51.14
2023-02-18T04:02:05.521Z,51.25
2023-02-18T04:04:34.434Z,51.28
2023-02-18T04:07:02.638Z,51.56
2023-02-18T04:09:32.355Z,51.32
2023-02-18T04:12:00.573Z,51.46
2023-02-18T04:14:28.768Z,51.61
2023-02-18T04:16:56.938Z,51.24
2023-02-18T04:19:25.284Z,51.06
2023-02-18T04:21:53.413Z,51.19
2023-02-18T04:24:21.483Z,51.31
2023-02-18T04:26:50.998Z,51.38
2023-02-18T04:29:19.321Z,51.40
2023-02-18T04:31:47.544Z,51.44
2023-02-18T04:34:15.771Z,51.76
2023-02-18T04:36:43.900Z,51.71
2023-02-18T04:39:12.260Z,51.74
2023-02-18T04:41:40.423Z,51.90
2023-02-18T04:44:09.969Z,52.11
2023-02-18T04:46:38.052Z,52.33
2023-02-18T04:49:06.311Z,52.53
2023-02-18T04:51:34.360Z,52.69
2023-02-18T04:54:02.449Z,53.05
2023-02-18T04:56:30.648Z,53.19
2023-02-18T04:58:58.859Z,52.92
2023-02-18T05:01:28.554Z,52.99
2023-02-18T05:03:57.572Z,52.86
2023-02-18T05:06:25.797Z,52.87
2023-02-18T05:08:53.904Z,53.22
2023-02-18T05:11:22.031Z,53.13
2023-02-18T05:13:50.222Z,53.02
2023-02-18T05:16:18.391Z,52.80
2023-02-18T05:18:48.134Z,52.86
2023-02-18T05:21:16.266Z,52.89
2023-02-18T05:23:44.534Z,53.08
2023-02-18T05:26:12.722Z,53.05
2023-02-18T05:28:40.948Z,53.02
2023-02-18T05:31:09.347Z,52.42
2023-02-18T05:33:37.729Z,52.13
2023-02-18T05:36:08.388Z,51.92
2023-02-18T05:38:36.578Z,51.42
2023-02-18T05:41:06.098Z,51.30
2023-02-18T05:43:55.662Z,51.14
2023-02-18T05:46:25.258Z,51.14
2023-02-18T05:48:53.595Z,50.98
2023-02-18T05:51:23.289Z,50.12
2023-02-18T05:53:51.415Z,49.80
2023-02-18T05:56:19.503Z,49.56
2023-02-18T05:58:48.943Z,49.90
2023-02-18T06:01:17.023Z,49.43
2023-02-18T06:03:45.158Z,49.55
2023-02-18T06:06:13.280Z,49.65
2023-02-18T06:08:43.012Z,49.22
2023-02-18T06:11:12.882Z,49.25
2023-02-18T06:13:42.343Z,49.16
2023-02-18T06:16:10.831Z,49.23
2023-02-18T06:18:39.220Z,49.58
2023-02-18T06:21:07.851Z,49.51
2023-02-18T06:23:35.992Z,49.57
2023-02-18T06:26:06.126Z,49.37
2023-02-18T06:28:34.655Z,49.49
2023-02-18T06:31:02.882Z,49.71
2023-02-18T06:33:31.108Z,49.97
2023-02-18T06:36:00.666Z,49.95
2023-02-18T06:38:30.445Z,49.85
2023-02-18T06:40:58.640Z,49.86
2023-02-18T06:43:28.192Z,49.44
2023-02-18T06:45:56.317Z,49.49
2023-02-18T06:48:25.871Z,49.39
2023-02-18T06:50:53.931Z,49.36
2023-02-18T06:53:22.322Z,49.58
2023-02-18T06:55:50.551Z,49.68
2023-02-18T06:58:18.910Z,49.02
2023-02-18T07:00:48.597Z,49.11
2023-02-18T07:03:17.413Z,48.63
2023-02-18T07:05:45.977Z,48.46
2023-02-18T07:08:14.297Z,47.97
2023-02-18T07:10:42.659Z,47.79
2023-02-18T07:13:11.270Z,47.86
2023-02-18T07:15:39.415Z,47.10
2023-02-18T07:18:09.200Z,47.36
2023-02-18T07:20:39.542Z,47.01
2023-02-18T07:23:13.397Z,46.69
2023-02-18T07:25:41.930Z,46.25
2023-02-18T07:28:16.974Z,46.04
2023-02-18T07:30:45.066Z,45.85
2023-02-18T07:33:15.374Z,45.67
2023-02-18T07:35:43.569Z,45.41
2023-02-18T07:38:11.680Z,45.38
2023-02-18T07:40:40.635Z,45.34
2023-02-18T07:43:08.891Z,45.03
2023-02-18T07:45:39.569Z,45.08
2023-02-18T07:48:07.937Z,45.15
2023-02-18T07:50:40.338Z,45.49
2023-02-18T07:53:09.113Z,45.60
2023-02-18T07:55:53.108Z,45.16
2023-02-18T07:58:23.964Z,45.52
2023-02-18T08:00:53.603Z,45.24
2023-02-18T08:03:23.246Z,44.48
2023-02-18T08:05:53.654Z,44.67
2023-02-18T08:08:25.044Z,44.25
2023-02-18T08:10:54.261Z,43.41
2023-02-18T08:13:22.569Z,43.44
2023-02-18T08:15:51.198Z,43.44
2023-02-18T08:18:21.949Z,42.52
2023-02-18T08:20:50.548Z,42.22
2023-02-18T08:23:21.521Z,42.07
2023-02-18T08:25:51.368Z,41.81
2023-02-18T08:28:19.951Z,41.00
2023-02-18T08:30:48.604Z,41.05
2023-02-18T08:33:17.416Z,40.15
2023-02-18T08:35:46.506Z,40.23
2023-02-18T08:38:14.625Z,40.21
2023-02-18T08:40:46.107Z,40.38
2023-02-18T08:43:14.857Z,39.64
2023-02-18T08:45:43.881Z,40.05
2023-02-18T08:48:19.578Z,39.76
2023-02-18T08:50:48.623Z,39.68
2023-02-18T08:53:17.135Z,39.24
2023-02-18T08:55:47.059Z,39.01
2023-02-18T08:58:15.404Z,38.98
2023-02-18T09:00:45.057Z,38.48
2023-02-18T09:03:14.828Z,38.41
2023-02-18T09:05:43.214Z,38.99
2023-02-18T09:08:11.562Z,38.77
2023-02-18T09:10:39.825Z,38.05
2023-02-18T09:13:09.360Z,38.34
2023-02-18T09:15:37.887Z,37.52
2023-02-18T09:18:06.174Z,37.68
2023-02-18T09:20:34.321Z,37.42
2023-02-18T09:23:03.732Z,37.28
2023-02-18T09:25:31.878Z,37.16
2023-02-18T09:28:00.098Z,36.77
2023-02-18T09:30:29.796Z,36.59
2023-02-18T09:32:58.054Z,36.40
2023-02-18T09:35:26.204Z,36.28
2023-02-18T09:37:54.414Z,36.16
2023-02-18T09:40:26.946Z,35.61
2023-02-18T09:42:57.616Z,35.47
2023-02-18T09:45:26.760Z,35.60
2023-02-18T09:47:56.699Z,35.38
2023-02-18T09:50:27.554Z,35.31
2023-02-18T09:52:55.941Z,35.38
2023-02-18T09:55:26.321Z,35.43
2023-02-18T09:57:57.215Z,35.40
2023-02-18T10:00:31.664Z,35.65
2023-02-18T10:03:05.523Z,35.63
2023-02-18T10:05:35.450Z,35.36
2023-02-18T10:08:07.327Z,35.44
2023-02-18T10:10:41.033Z,35.21
2023-02-18T10:13:15.011Z,35.95
2023-02-18T10:15:44.610Z,35.59
2023-02-18T10:18:24.481Z,35.28
2023-02-18T10:20:54.391Z,35.64
2023-02-18T10:23:23.233Z,35.68
2023-02-18T10:25:53.050Z,35.79
2023-02-18T10:28:26.160Z,36.01
2023-02-18T10:31:00.870Z,35.57
2023-02-18T10:33:35.275Z,35.49
2023-02-18T10:36:25.305Z,35.36
2023-02-18T10:39:09.259Z,35.41
2023-02-18T10:41:48.555Z,35.65
2023-02-18T10:44:25.781Z,35.57
2023-02-18T10:47:07.608Z,35.85
2023-02-18T10:49:56.005Z,35.93
2023-02-18T10:52:24.926Z,36.18
2023-02-18T10:54:59.468Z,36.46
2023-02-18T10:57:27.810Z,36.28
2023-02-18T10:59:58.615Z,36.43
2023-02-18T11:02:31.588Z,36.89
2023-02-18T11:05:07.658Z,36.96
2023-02-18T11:07:39.931Z,37.23
2023-02-18T11:10:18.331Z,37.21
2023-02-18T11:12:49.091Z,37.40
2023-02-18T11:15:24.721Z,37.58
2023-02-18T11:17:54.723Z,37.32
2023-02-18T11:20:32.049Z,37.48
2023-02-18T11:23:16.545Z,37.22
2023-02-18T11:25:56.654Z,37.11
2023-02-18T11:28:32.119Z,37.75
2023-02-18T11:31:03.737Z,37.91
2023-02-18T11:33:36.722Z,38.31
2023-02-18T11:36:19.326Z,38.44
2023-02-18T11:38:51.039Z,38.77
2023-02-18T11:41:22.197Z,38.43
2023-02-18T11:43:54.508Z,38.35
2023-02-18T11:46:24.772Z,38.37
2023-02-18T11:48:54.645Z,38.52
2023-02-18T11:51:27.493Z,37.99
2023-02-18T11:54:02.298Z,38.11
2023-02-18T11:56:33.140Z,38.21
2023-02-18T11:59:02.981Z,38.09
2023-02-18T12:01:43.730Z,37.99
2023-02-18T12:04:15.575Z,37.81
2023-02-18T12:06:51.873Z,37.68
2023-02-18T12:09:25.182Z,37.76
2023-02-18T12:11:59.997Z,38.14
2023-02-18T12:14:28.965Z,38.14
2023-02-18T12:17:35.886Z,37.87
2023-02-18T12:20:42.501Z,38.16
2023-02-18T12:23:22.255Z,38.66
2023-02-18T12:25:59.435Z,38.70
2023-02-18T12:28:46.811Z,38.68
2023-02-18T12:31:38.607Z,38.68
2023-02-18T12:34:22.529Z,38.58
2023-02-18T12:36:59.866Z,39.00
2023-02-18T12:39:43.176Z,39.02
2023-02-18T12:42:25.526Z,39.14
2023-02-18T12:45:08.015Z,39.82
2023-02-18T12:47:55.964Z,39.75
2023-02-18T12:50:35.886Z,40.04
2023-02-18T12:53:35.023Z,40.19
2023-02-18T12:56:25.482Z,39.83
2023-02-18T12:59:01.681Z,39.91
2023-02-18T13:01:40.054Z,40.23
2023-02-18T13:04:31.760Z,40.45
2023-02-18T13:07:27.050Z,40.49
2023-02-18T13:10:12.436Z,40.96
2023-02-18T13:12:47.488Z,41.23
2023-02-18T13:15:22.213Z,41.26
2023-02-18T13:17:52.771Z,41.54
2023-02-18T13:20:26.480Z,41.61
2023-02-18T13:22:55.069Z,41.72
2023-02-18T13:25:24.207Z,41.72
2023-02-18T13:28:07.343Z,41.54
2023-02-18T13:30:43.748Z,42.08
2023-02-18T13:33:19.354Z,42.28
2023-02-18T13:35:54.173Z,42.00
2023-02-18T13:38:52.978Z,42.03
2023-02-18T13:41:22.101Z,42.27
2023-02-18T13:43:51.680Z,42.34
2023-02-18T13:46:22.002Z,42.92
2023-02-18T13:48:52.903Z,42.54
2023-02-18T13:51:31.858Z,43.14
2023-02-18T13:54:05.565Z,42.97
2023-02-18T13:56:36.222Z,43.33
2023-02-18T13:59:13.549Z,43.35
2023-02-18T14:01:48.026Z,43.75
2023-02-18T14:04:54.655Z,44.06
2023-02-18T14:07:47.123Z,44.51
2023-02-18T14:10:35.968Z,44.75
2023-02-18T14:13:21.792Z,45.31
2023-02-18T14:15:55.106Z,45.21
2023-02-18T14:18:28.638Z,45.15
2023-02-18T14:21:18.884Z,45.53
2023-02-18T14:23:58.458Z,46.03
2023-02-18T14:26:31.646Z,45.94
2023-02-18T14:29:04.332Z,45.99
2023-02-18T14:31:43.032Z,46.33
2023-02-18T14:34:49.176Z,46.44
2023-02-18T14:37:56.446Z,46.22
2023-02-18T14:40:35.309Z,46.24
2023-02-18T14:43:14.221Z,46.49
2023-02-18T14:46:10.883Z,46.47
2023-02-18T14:49:03.347Z,46.95
2023-02-18T14:51:34.775Z,47.02
2023-02-18T14:54:07.388Z,47.19
2023-02-18T14:56:40.968Z,47.29
2023-02-18T14:59:09.973Z,47.71
2023-02-18T15:01:39.087Z,48.17
2023-02-18T15:04:08.634Z,48.20
2023-02-18T15:06:38.138Z,48.15
2023-02-18T15:09:16.422Z,48.53
2023-02-18T15:11:48.433Z,48.39
2023-02-18T15:14:20.549Z,49.08
2023-02-18T15:16:50.864Z,48.97
2023-02-18T15:19:23.905Z,49.10
2023-02-18T15:21:54.656Z,49.28
2023-02-18T15:24:27.429Z,49.44
2023-02-18T15:26:58.743Z,49.28
2023-02-18T15:29:28.853Z,49.37
2023-02-18T15:31:59.028Z,49.43
2023-02-18T15:34:38.362Z,49.79
2023-02-18T15:37:09.251Z,49.84
2023-02-18T15:39:39.615Z,49.99
2023-02-18T15:42:18.610Z,50.18
2023-02-18T15:44:49.953Z,50.32
2023-02-18T15:47:18.895Z,50.55
2023-02-18T15:49:51.571Z,50.52
2023-02-18T15:52:25.910Z,51.02
2023-02-18T15:54:54.959Z,51.35
2023-02-18T15:57:28.468Z,51.66
2023-02-18T16:00:03.893Z,51.89
2023-02-18T16:02:34.216Z,52.25
2023-02-18T16:05:05.562Z,52.26
2023-02-18T16:07:39.587Z,52.32
2023-02-18T16:10:20.721Z,52.61
2023-02-18T16:12:52.911Z,52.81
2023-02-18T16:15:27.066Z,52.92
2023-02-18T16:17:56.067Z,53.00
2023-02-18T16:20:32.023Z,52.73
2023-02-18T16:23:03.481Z,52.80
2023-02-18T16:25:43.452Z,52.94
2023-02-18T16:28:16.592Z,53.21
2023-02-18T16:30:46.532Z,53.12
2023-02-18T16:33:14.965Z,52.97
2023-02-18T16:35:49.851Z,53.25
2023-02-18T16:38:19.968Z,53.15
2023-02-18T16:40:48.704Z,53.16
2023-02-18T16:43:20.129Z,53.18
2023-02-18T16:45:50.704Z,53.50
2023-02-18T16:48:22.652Z,53.67
2023-02-18T16:50:52.785Z,53.82
2023-02-18T16:53:21.373Z,54.14
2023-02-18T16:55:51.192Z,54.17
2023-02-18T16:58:19.287Z,54.38
2023-02-18T17:00:50.503Z,55.12
2023-02-18T17:03:19.148Z,55.13
2023-02-18T17:05:47.287Z,55.11
2023-02-18T17:08:24.162Z,55.18
2023-02-18T17:10:54.175Z,55.10
2023-02-18T17:13:28.263Z,55.12
2023-02-18T17:15:58.318Z,54.97
2023-02-18T17:18:27.248Z,55.19
2023-02-18T17:20:57.202Z,55.77
2023-02-18T17:23:26.892Z,55.93
2023-02-18T17:25:55.083Z,56.14
2023-02-18T17:28:23.404Z,56.08
2023-02-18T17:30:57.572Z,56.58
2023-02-18T17:33:26.624Z,56.82
2023-02-18T17:35:54.758Z,57.05
2023-02-18T17:38:22.860Z,57.13
2023-02-18T17:40:52.417Z,57.00
2023-02-18T17:43:20.624Z,56.79
2023-02-18T17:45:52.526Z,57.13
2023-02-18T17:48:21.346Z,57.15
2023-02-18T17:50:49.549Z,57.68
2023-02-18T17:53:18.727Z,58.55
2023-02-18T17:55:49.809Z,59.18
2023-02-18T17:58:19.475Z,59.40
2023-02-18T18:00:50.317Z,59.04
2023-02-18T18:03:19.334Z,58.99
2023-02-18T18:05:49.490Z,59.06
2023-02-18T18:08:17.805Z,59.13
2023-02-18T18:10:50.587Z,60.11
2023-02-18T18:13:23.490Z,60.70
2023-02-18T18:15:52.624Z,60.47
2023-02-18T18:18:21.393Z,60.59
2023-02-18T18:20:52.671Z,61.09
2023-02-18T18:23:22.971Z,61.29
2023-02-18T18:25:52.761Z,61.47
2023-02-18T18:28:22.441Z,61.14
2023-02-18T18:30:52.381Z,60.76
2023-02-18T18:33:21.887Z,60.41
2023-02-18T18:35:52.249Z,60.51
2023-02-18T18:38:21.095Z,60.46
2023-02-18T18:40:50.213Z,60.44
2023-02-18T18:43:20.473Z,60.32
2023-02-18T18:45:50.877Z,60.40
2023-02-18T18:48:20.181Z,60.43
2023-02-18T18:50:49.199Z,60.62
2023-02-18T18:53:20.200Z,60.56
2023-02-18T18:55:49.396Z,60.01
2023-02-18T18:58:20.924Z,60.04
2023-02-18T19:00:52.441Z,59.99
2023-02-18T19:03:21.493Z,59.69
2023-02-18T19:05:51.576Z,59.50
2023-02-18T19:08:20.720Z,59.65
2023-02-18T19:10:50.062Z,59.57
2023-02-18T19:13:20.302Z,59.46
2023-02-18T19:15:51.569Z,59.13
2023-02-18T19:18:21.848Z,58.68
2023-02-18T19:20:50.000Z,58.44
2023-02-18T19:23:18.154Z,58.31
2023-02-18T19:25:46.425Z,58.15
2023-02-18T19:28:14.772Z,57.98
2023-02-18T19:30:43.494Z,57.51
2023-02-18T19:33:15.336Z,57.57
2023-02-18T19:35:44.292Z,57.85
2023-02-18T19:38:15.375Z,57.48
2023-02-18T19:40:44.475Z,57.41
2023-02-18T19:43:13.890Z,57.26
2023-02-18T19:45:43.278Z,57.25
2023-02-18T19:48:14.438Z,57.14
2023-02-18T19:50:43.534Z,56.80
2023-02-18T19:53:12.851Z,56.40
2023-02-18T19:55:41.592Z,56.33
2023-02-18T19:58:09.849Z,56.27
2023-02-18T20:00:37.989Z,56.08
2023-02-18T20:03:06.136Z,55.97
2023-02-18T20:05:38.168Z,55.58
2023-02-18T20:08:07.451Z,55.32
2023-02-18T20:10:35.803Z,55.08
2023-02-18T20:13:04.614Z,54.87
2023-02-18T20:15:33.053Z,54.73
2023-02-18T20:18:01.314Z,54.52
2023-02-18T20:20:29.610Z,54.69
2023-02-18T20:22:59.352Z,54.22
2023-02-18T20:25:28.379Z,54.06
2023-02-18T20:28:01.168Z,54.15
2023-02-18T20:30:29.820Z,53.94
2023-02-18T20:32:57.978Z,54.18
2023-02-18T20:35:26.353Z,54.11
2023-02-18T20:37:54.471Z,54.17
2023-02-18T20:40:24.244Z,53.88
2023-02-18T20:42:52.341Z,53.98
2023-02-18T20:45:20.584Z,54.05
2023-02-18T20:47:48.797Z,54.31
2023-02-18T20:50:17.315Z,54.69
2023-02-18T20:52:45.464Z,54.92
2023-02-18T20:55:13.527Z,55.28
2023-02-18T20:57:43.067Z,55.26
2023-02-18T21:00:13.215Z,55.48
2023-02-18T21:02:41.374Z,55.42
2023-02-18T21:05:09.662Z,55.29
2023-02-18T21:07:37.809Z,55.23
2023-02-18T21:10:06.699Z,55.08
2023-02-18T21:12:34.828Z,54.90
2023-02-18T21:15:04.477Z,55.23
2023-02-18T21:17:32.689Z,55.10
2023-02-18T21:20:01.557Z,55.20
2023-02-18T21:22:29.690Z,55.02
2023-02-18T21:24:59.181Z,55.30
2023-02-18T21:27:27.489Z,55.02
2023-02-18T21:29:55.618Z,55.28
2023-02-18T21:32:25.284Z,55.19
2023-02-18T21:34:53.590Z,55.13
2023-02-18T21:37:22.854Z,55.48
2023-02-18T21:39:50.928Z,55.71
2023-02-18T21:42:19.184Z,55.54
2023-02-18T21:44:48.355Z,55.79
2023-02-18T21:47:16.441Z,55.62
2023-02-18T21:49:46.049Z,55.64
2023-02-18T21:52:14.227Z,56.01
2023-02-18T21:54:44.887Z,56.33
2023-02-18T21:57:15.308Z,56.35
2023-02-18T21:59:43.720Z,56.65
2023-02-18T22:02:17.344Z,56.92
2023-02-18T22:04:47.420Z,57.13
2023-02-18T22:07:16.301Z,57.38
2023-02-18T22:09:47.295Z,57.73
2023-02-18T22:12:16.774Z,58.00
2023-02-18T22:14:45.284Z,57.87
2023-02-18T22:17:14.499Z,57.88
2023-02-18T22:19:42.889Z,58.18
2023-02-18T22:22:12.394Z,58.26
2023-02-18T22:24:40.502Z,58.54
2023-02-18T22:27:09.072Z,58.65
2023-02-18T22:29:37.364Z,58.76
2023-02-18T22:32:05.930Z,59.13
2023-02-18T22:34:34.508Z,58.91
2023-02-18T22:37:02.647Z,58.96
2023-02-18T22:39:32.443Z,59.02
2023-02-18T22:42:00.528Z,58.99
2023-02-18T22:44:28.700Z,59.04
2023-02-18T22:46:56.989Z,58.80
2023-02-18T22:49:25.714Z,58.55
2023-02-18T22:51:55.512Z,58.56
2023-02-18T22:54:23.730Z,58.60
2023-02-18T22:56:54.637Z,58.40
2023-02-18T22:59:22.934Z,58.67
2023-02-18T23:01:53.037Z,58.66
2023-02-18T23:04:22.513Z,58.89
2023-02-18T23:06:51.920Z,58.77
2023-02-18T23:09:23.486Z,59.02
2023-02-18T23:11:55.289Z,58.94
2023-02-18T23:14:23.563Z,59.16
2023-02-18T23:17:12.146Z,59.20
2023-02-18T23:19:41.594Z,59.36
2023-02-18T23:22:11.014Z,59.65
2023-02-18T23:24:41.586Z,59.60
2023-02-18T23:27:14.034Z,60.13
2023-02-18T23:29:42.433Z,60.26
2023-02-18T23:32:10.757Z,60.13
2023-02-18T23:34:38.998Z,60.07
2023-02-18T23:37:07.579Z,60.44
2023-02-18T23:39:35.793Z,60.51
2023-02-18T23:42:03.941Z,60.68
2023-02-18T23:44:33.932Z,61.27
2023-02-18T23:47:02.724Z,61.60
2023-02-18T23:49:32.434Z,61.62
2023-02-18T23:52:00.967Z,61.58
2023-02-18T23:54:29.041Z,62.07
2023-02-18T23:56:57.649Z,61.95
2023-02-18T23:59:25.933Z,61.85
